createdAt,value
2023-05-02T00:01:43.337Z,35.26
2023-05-02T00:04:11.129Z,35.20
2023-05-02T00:06:38.683Z,35.11
2023-05-02T00:09:06.211Z,35.04
2023-05-02T00:11:33.911Z,34.98
2023-05-02T00:14:01.434Z,34.91
2023-05-02T00:16:28.842Z,34.97
2023-05-02T00:18:56.626Z,34.92
2023-05-02T00:21:24.088Z,34.92
2023-05-02T00:23:51.913Z,34.83
2023-05-02T00:26:19.634Z,34.85
2023-05-02T00:28:47.286Z,34.83
2023-05-02T00:31:15.173Z,34.84
2023-05-02T00:33:42.939Z,34.88
2023-05-02T00:36:14.999Z,34.97
2023-05-02T00:38:42.789Z,34.94
2023-05-02T00:41:10.188Z,34.86
2023-05-02T00:43:39.616Z,34.75
2023-05-02T00:46:07.925Z,34.83
2023-05-02T00:48:35.499Z,34.97
2023-05-02T00:51:05.042Z,34.81
2023-05-02T00:53:32.914Z,34.84
2023-05-02T00:56:00.365Z,34.59
2023-05-02T00:58:27.900Z,34.52
2023-05-02T01:00:59.228Z,34.66
2023-05-02T01:03:41.808Z,34.70
2023-05-02T01:06:16.800Z,34.55
2023-05-02T01:08:50.831Z,34.52
2023-05-02T01:11:48.872Z,34.54
2023-05-02T01:14:16.337Z,34.54
2023-05-02T01:16:44.226Z,34.48
2023-05-02T01:19:35.507Z,34.53
2023-05-02T01:22:08.003Z,34.51
2023-05-02T01:24:41.309Z,34.39
2023-05-02T01:27:28.487Z,34.40
2023-05-02T01:29:56.634Z,34.60
2023-05-02T01:32:24.538Z,34.44
2023-05-02T01:34:51.988Z,34.34
2023-05-02T01:37:19.786Z,34.24
2023-05-02T01:39:47.506Z,34.27
2023-05-02T01:42:15.065Z,34.24
2023-05-02T01:44:42.616Z,34.22
2023-05-02T01:47:10.334Z,34.20
2023-05-02T01:49:37.792Z,34.13
2023-05-02T01:52:05.902Z,34.02
2023-05-02T01:54:33.872Z,34.02
2023-05-02T01:57:01.470Z,33.96
2023-05-02T01:59:28.927Z,33.96
2023-05-02T02:01:56.675Z,33.93
2023-05-02T02:04:24.497Z,33.98
2023-05-02T02:06:55.759Z,34.02
2023-05-02T02:09:23.179Z,33.89
2023-05-02T02:11:57.645Z,33.93
2023-05-02T02:14:25.922Z,33.89
2023-05-02T02:16:55.386Z,33.88
2023-05-02T02:19:22.831Z,33.91
2023-05-02T02:21:51.154Z,33.95
2023-05-02T02:24:19.000Z,33.98
2023-05-02T02:26:46.581Z,33.94
2023-05-02T02:29:14.276Z,33.88
2023-05-02T02:31:41.686Z,33.91
2023-05-02T02:34:09.174Z,33.86
2023-05-02T02:36:45.933Z,33.86
2023-05-02T02:39:23.335Z,33.96
2023-05-02T02:42:04.467Z,33.93
2023-05-02T02:44:47.744Z,33.88
2023-05-02T02:47:26.344Z,33.82
2023-05-02T02:50:23.084Z,33.85
2023-05-02T02:52:55.017Z,33.95
2023-05-02T02:55:53.665Z,33.90
2023-05-02T02:58:43.636Z,33.87
2023-05-02T03:01:15.081Z,33.95
2023-05-02T03:03:43.218Z,33.78
2023-05-02T03:06:10.749Z,33.77
2023-05-02T03:08:44.303Z,33.75
2023-05-02T03:11:12.467Z,33.85
2023-05-02T03:13:39.889Z,33.89
2023-05-02T03:16:40.402Z,33.77
2023-05-02T03:19:08.653Z,33.78
2023-05-02T03:21:36.368Z,33.84
2023-05-02T03:24:05.856Z,33.74
2023-05-02T03:26:34.096Z,33.73
2023-05-02T03:29:01.805Z,33.74
2023-05-02T03:31:29.840Z,33.74
2023-05-02T03:33:58.707Z,33.70
2023-05-02T03:36:26.131Z,33.76
2023-05-02T03:38:53.881Z,33.86
2023-05-02T03:41:21.872Z,33.84
2023-05-02T03:43:52.003Z,33.88
2023-05-02T03:46:21.475Z,33.90
2023-05-02T03:48:49.258Z,33.88
2023-05-02T03:51:17.649Z,33.87
2023-05-02T03:53:46.292Z,33.88
2023-05-02T03:56:18.620Z,33.88
2023-05-02T03:58:47.206Z,33.87
2023-05-02T04:01:17.599Z,33.92
2023-05-02T04:03:47.286Z,33.91
2023-05-02T04:06:15.558Z,33.89
2023-05-02T04:08:43.442Z,33.77
2023-05-02T04:11:11.440Z,33.81
2023-05-02T04:13:39.031Z,33.79
2023-05-02T04:16:07.706Z,33.80
2023-05-02T04:18:35.918Z,33.81
2023-05-02T04:21:04.018Z,33.83
2023-05-02T04:23:31.741Z,33.82
2023-05-02T04:25:59.769Z,33.98
2023-05-02T04:28:27.948Z,33.99
2023-05-02T04:30:57.408Z,33.94
2023-05-02T04:33:25.738Z,33.95
2023-05-02T04:35:53.686Z,33.93
2023-05-02T04:38:21.976Z,33.92
2023-05-02T04:40:51.656Z,34.09
2023-05-02T04:43:21.449Z,34.05
2023-05-02T04:45:51.175Z,34.00
2023-05-02T04:48:22.068Z,33.97
2023-05-02T04:50:49.777Z,33.99
2023-05-02T04:53:17.581Z,34.08
2023-05-02T04:55:44.988Z,34.09
2023-05-02T04:58:12.741Z,34.08
2023-05-02T05:00:41.272Z,34.13
2023-05-02T05:03:09.332Z,34.12
2023-05-02T05:05:36.864Z,34.18
2023-05-02T05:08:05.151Z,34.28
2023-05-02T05:10:33.193Z,34.44
2023-05-02T05:13:01.358Z,34.52
2023-05-02T05:15:29.150Z,34.50
2023-05-02T05:17:57.413Z,34.64
2023-05-02T05:20:25.237Z,34.71
2023-05-02T05:22:53.264Z,34.87
2023-05-02T05:25:20.992Z,34.87
2023-05-02T05:27:49.214Z,34.92
2023-05-02T05:30:17.151Z,34.99
2023-05-02T05:32:44.599Z,35.01
2023-05-02T05:35:12.117Z,35.02
2023-05-02T05:37:40.280Z,34.96
2023-05-02T05:40:08.776Z,35.02
2023-05-02T05:42:36.559Z,35.09
2023-05-02T05:45:05.969Z,35.33
2023-05-02T05:47:33.705Z,35.55
2023-05-02T05:50:02.228Z,36.05
2023-05-02T05:52:31.888Z,36.58
2023-05-02T05:54:59.834Z,36.26
2023-05-02T05:57:27.594Z,36.54
2023-05-02T05:59:55.956Z,36.67
2023-05-02T06:02:23.943Z,36.86
2023-05-02T06:04:51.774Z,37.05
2023-05-02T06:07:19.878Z,37.20
2023-05-02T06:10:06.452Z,37.26
2023-05-02T06:12:34.807Z,37.46
2023-05-02T06:15:02.205Z,37.63
2023-05-02T06:17:31.394Z,37.79
2023-05-02T06:19:59.377Z,37.90
2023-05-02T06:22:27.895Z,37.89
2023-05-02T06:24:56.141Z,38.07
2023-05-02T06:27:23.886Z,38.19
2023-05-02T06:29:52.423Z,38.24
2023-05-02T06:32:20.011Z,38.31
2023-05-02T06:34:47.674Z,38.40
2023-05-02T06:37:15.167Z,38.45
2023-05-02T06:39:42.656Z,38.54
2023-05-02T06:42:10.397Z,38.62
2023-05-02T06:44:37.946Z,38.67
2023-05-02T06:47:06.734Z,38.69
2023-05-02T06:49:34.528Z,38.68
2023-05-02T06:52:02.218Z,38.69
2023-05-02T06:54:29.852Z,38.72
2023-05-02T06:56:57.596Z,38.74
2023-05-02T06:59:26.461Z,38.69
2023-05-02T07:01:53.902Z,38.68
2023-05-02T07:04:21.908Z,38.65
2023-05-02T07:06:49.581Z,38.62
2023-05-02T07:09:17.446Z,38.57
2023-05-02T07:11:45.181Z,38.54
2023-05-02T07:14:12.647Z,38.49
2023-05-02T07:16:40.074Z,38.42
2023-05-02T07:35:15.545Z,38.10
2023-05-02T07:40:47.057Z,37.88
2023-05-02T07:46:18.487Z,37.88
2023-05-02T07:54:59.380Z,37.34
2023-05-02T07:57:27.199Z,37.44
2023-05-02T07:59:57.255Z,37.42
2023-05-02T08:02:26.272Z,37.46
2023-05-02T08:04:54.193Z,37.45
2023-05-02T08:07:21.791Z,37.48
2023-05-02T08:09:49.176Z,37.50
2023-05-02T08:12:17.025Z,37.54
2023-05-02T08:14:44.504Z,37.61
2023-05-02T08:17:12.164Z,37.71
2023-05-02T08:19:39.887Z,37.77
2023-05-02T08:22:07.504Z,37.84
2023-05-02T08:24:34.982Z,37.89
2023-05-02T08:27:06.730Z,37.92
2023-05-02T08:29:34.155Z,37.91
2023-05-02T08:32:01.769Z,37.90
2023-05-02T08:34:29.524Z,37.89
2023-05-02T08:36:58.346Z,37.86
2023-05-02T08:39:26.018Z,37.83
2023-05-02T08:41:53.749Z,37.80
2023-05-02T08:44:21.158Z,37.78
2023-05-02T08:46:49.105Z,37.75
2023-05-02T08:49:16.946Z,37.72
2023-05-02T08:51:44.942Z,37.70
2023-05-02T08:54:12.451Z,37.68
2023-05-02T08:56:40.137Z,37.65
2023-05-02T08:59:08.193Z,37.63
2023-05-02T09:01:35.855Z,37.59
2023-05-02T09:04:04.854Z,37.58
2023-05-02T09:06:32.907Z,37.56
2023-05-02T09:09:01.552Z,37.53
2023-05-02T09:11:29.658Z,37.54
2023-05-02T09:13:59.066Z,37.52
2023-05-02T09:16:27.188Z,37.52
2023-05-02T09:18:56.125Z,37.50
2023-05-02T09:21:34.776Z,37.51
2023-05-02T09:24:03.943Z,37.50
2023-05-02T09:26:33.459Z,37.46
2023-05-02T09:29:01.892Z,37.46
2023-05-02T09:31:54.827Z,37.44
2023-05-02T09:34:23.502Z,37.41
2023-05-02T09:36:54.008Z,37.32
2023-05-02T09:39:23.808Z,37.31
2023-05-02T09:41:53.105Z,37.30
2023-05-02T09:44:22.433Z,37.27
2023-05-02T09:46:54.508Z,37.24
2023-05-02T09:49:42.597Z,37.04
2023-05-02T09:52:11.542Z,37.08
2023-05-02T09:54:39.356Z,37.11
2023-05-02T09:57:07.406Z,37.08
2023-05-02T09:59:35.043Z,37.03
2023-05-02T10:02:03.633Z,36.97
2023-05-02T10:04:33.125Z,36.92
2023-05-02T10:07:00.756Z,36.87
2023-05-02T10:09:28.726Z,36.81
2023-05-02T10:11:56.682Z,36.78
2023-05-02T10:14:27.798Z,36.71
2023-05-02T10:17:01.690Z,36.67
2023-05-02T10:20:01.428Z,36.64
2023-05-02T10:22:29.120Z,36.55
2023-05-02T10:24:56.537Z,36.52
2023-05-02T10:27:24.100Z,36.52
2023-05-02T10:29:51.851Z,36.49
2023-05-02T10:32:19.372Z,36.43
2023-05-02T10:34:47.364Z,36.40
2023-05-02T10:37:15.053Z,36.33
2023-05-02T10:39:42.600Z,36.31
2023-05-02T10:42:10.569Z,36.25
2023-05-02T10:44:40.542Z,36.21
2023-05-02T10:47:27.349Z,36.18
2023-05-02T10:49:58.728Z,36.10
2023-05-02T10:52:36.850Z,36.10
2023-05-02T10:55:23.704Z,36.10
2023-05-02T10:58:00.220Z,36.04
2023-05-02T11:00:35.457Z,36.00
2023-05-02T11:03:03.281Z,36.01
2023-05-02T11:05:31.182Z,35.98
2023-05-02T11:08:21.274Z,35.98
2023-05-02T11:10:50.793Z,35.94
2023-05-02T11:13:18.428Z,35.95
2023-05-02T11:15:45.908Z,35.97
2023-05-02T11:18:14.278Z,35.97
2023-05-02T11:20:45.028Z,35.96
2023-05-02T11:23:16.013Z,36.01
2023-05-02T11:26:06.367Z,36.04
2023-05-02T11:28:36.712Z,36.04
2023-05-02T11:31:08.196Z,36.08
2023-05-02T11:33:36.802Z,36.16
2023-05-02T11:36:04.665Z,36.23
2023-05-02T11:38:37.311Z,36.30
2023-05-02T11:41:05.180Z,36.45
2023-05-02T11:43:33.004Z,36.52
2023-05-02T11:46:01.953Z,36.63
2023-05-02T11:48:30.242Z,36.78
2023-05-02T11:50:58.935Z,36.87
2023-05-02T11:53:28.958Z,36.97
2023-05-02T11:55:57.924Z,37.08
2023-05-02T11:58:29.909Z,37.10
2023-05-02T12:00:57.860Z,37.14
2023-05-02T12:03:29.070Z,37.16
2023-05-02T12:05:57.347Z,37.17
2023-05-02T12:08:27.411Z,37.19
2023-05-02T12:10:55.730Z,37.18
2023-05-02T12:13:24.436Z,37.17
2023-05-02T12:15:53.289Z,37.16
2023-05-02T12:18:23.875Z,37.17
2023-05-02T12:20:52.044Z,37.17
2023-05-02T12:23:20.961Z,37.17
2023-05-02T12:25:49.207Z,37.19
2023-05-02T12:28:20.037Z,37.17
2023-05-02T12:30:48.734Z,37.09
2023-05-02T12:33:17.424Z,36.99
2023-05-02T12:35:48.076Z,36.96
2023-05-02T12:38:17.569Z,36.92
2023-05-02T12:41:03.224Z,36.92
2023-05-02T12:43:45.857Z,36.92
2023-05-02T12:46:13.670Z,36.91
2023-05-02T12:48:41.373Z,36.89
2023-05-02T12:51:23.784Z,36.92
2023-05-02T12:53:51.535Z,36.98
2023-05-02T12:56:19.161Z,36.91
2023-05-02T12:58:47.389Z,36.87
2023-05-02T13:01:15.375Z,36.88
2023-05-02T13:03:43.414Z,36.93
2023-05-02T13:06:11.224Z,36.96
2023-05-02T13:08:39.329Z,36.84
2023-05-02T13:11:06.731Z,36.93
2023-05-02T13:13:35.432Z,36.82
2023-05-02T13:16:03.700Z,36.85
2023-05-02T13:18:31.262Z,37.22
2023-05-02T13:20:58.831Z,37.45
2023-05-02T13:23:26.575Z,37.53
2023-05-02T13:25:54.070Z,37.86
2023-05-02T13:28:21.696Z,37.26
2023-05-02T13:30:49.473Z,37.13
2023-05-02T13:33:16.932Z,37.39
2023-05-02T13:35:44.368Z,37.43
2023-05-02T13:38:12.091Z,37.55
2023-05-02T13:40:39.490Z,37.28
2023-05-02T13:43:06.915Z,37.16
2023-05-02T13:45:34.612Z,37.09
2023-05-02T13:48:02.154Z,37.04
2023-05-02T13:50:29.683Z,36.98
2023-05-02T13:52:57.410Z,36.95
2023-05-02T13:55:25.015Z,36.80
2023-05-02T13:57:52.445Z,36.79
2023-05-02T14:00:21.134Z,36.78
2023-05-02T14:02:48.630Z,36.73
2023-05-02T14:05:16.396Z,36.71
2023-05-02T14:07:43.800Z,36.70
2023-05-02T14:10:11.302Z,36.67
2023-05-02T14:12:39.000Z,36.58
2023-05-02T14:15:06.931Z,36.58
2023-05-02T14:17:34.401Z,36.34
2023-05-02T14:20:02.358Z,36.34
2023-05-02T14:22:30.507Z,36.29
2023-05-02T14:24:57.908Z,35.87
2023-05-02T14:27:25.878Z,35.89
2023-05-02T14:29:53.418Z,35.80
2023-05-02T14:32:21.676Z,35.72
2023-05-02T14:34:49.467Z,35.55
2023-05-02T14:37:16.909Z,35.71
2023-05-02T14:39:46.626Z,35.77
2023-05-02T14:42:15.711Z,35.37
2023-05-02T14:44:43.192Z,35.28
2023-05-02T14:47:10.778Z,35.44
2023-05-02T14:49:38.539Z,35.69
2023-05-02T14:52:06.034Z,35.69
2023-05-02T14:54:33.464Z,35.87
2023-05-02T14:57:02.236Z,35.98
2023-05-02T14:59:29.804Z,35.98
2023-05-02T15:01:57.425Z,35.75
2023-05-02T15:04:27.343Z,35.78
2023-05-02T15:06:56.047Z,35.73
2023-05-02T15:09:26.469Z,35.68
2023-05-02T15:11:54.276Z,35.66
2023-05-02T15:14:21.697Z,35.64
2023-05-02T15:16:49.222Z,35.59
2023-05-02T15:19:16.968Z,35.62
2023-05-02T15:21:44.617Z,35.57
2023-05-02T15:24:12.116Z,35.39
2023-05-02T15:26:41.021Z,35.54
2023-05-02T15:29:08.529Z,35.62
2023-05-02T15:31:36.340Z,35.52
2023-05-02T15:34:04.203Z,35.47
2023-05-02T15:36:32.784Z,35.61
2023-05-02T15:39:00.296Z,35.68
2023-05-02T15:41:28.114Z,35.73
2023-05-02T15:43:55.557Z,35.78
2023-05-02T15:46:23.016Z,35.84
2023-05-02T15:48:50.912Z,35.86
2023-05-02T15:51:18.470Z,35.90
2023-05-02T15:53:49.729Z,35.94
2023-05-02T15:56:17.522Z,35.95
2023-05-02T15:58:44.973Z,36.08
2023-05-02T16:01:12.461Z,36.13
2023-05-02T16:03:40.288Z,36.20
2023-05-02T16:06:07.936Z,36.29
2023-05-02T16:08:35.891Z,36.32
2023-05-02T16:11:03.616Z,36.30
2023-05-02T16:13:31.094Z,36.28
2023-05-02T16:15:58.607Z,36.30
2023-05-02T16:18:29.337Z,36.30
2023-05-02T16:20:59.862Z,36.32
2023-05-02T16:23:27.538Z,36.33
2023-05-02T16:26:01.641Z,36.33
2023-05-02T16:28:29.467Z,36.43
2023-05-02T16:30:57.114Z,36.63
2023-05-02T16:33:24.581Z,36.76
2023-05-02T16:36:01.468Z,36.82
2023-05-02T16:38:29.046Z,36.87
2023-05-02T16:40:57.429Z,36.93
2023-05-02T16:43:24.840Z,36.98
2023-05-02T16:46:07.727Z,37.01
2023-05-02T16:48:38.001Z,37.06
2023-05-02T16:51:05.790Z,37.12
2023-05-02T16:53:33.273Z,37.12
2023-05-02T16:56:01.078Z,37.23
2023-05-02T16:58:29.144Z,37.30
2023-05-02T17:00:57.006Z,37.39
2023-05-02T17:03:24.853Z,37.38
2023-05-02T17:05:52.245Z,37.40
2023-05-02T17:08:19.690Z,37.37
2023-05-02T17:10:50.498Z,37.43
2023-05-02T17:13:17.900Z,37.43
2023-05-02T17:15:45.331Z,37.46
2023-05-02T17:18:13.107Z,37.41
2023-05-02T17:20:41.404Z,37.36
2023-05-02T17:23:09.125Z,37.34
2023-05-02T17:25:36.959Z,37.31
2023-05-02T17:28:04.369Z,37.30
2023-05-02T17:30:32.175Z,37.30
2023-05-02T17:33:00.512Z,37.29
2023-05-02T17:35:28.252Z,37.29
2023-05-02T17:37:56.017Z,37.31
2023-05-02T17:40:24.340Z,37.32
2023-05-02T17:42:51.776Z,37.37
2023-05-02T17:45:19.281Z,37.38
2023-05-02T17:47:47.546Z,37.41
2023-05-02T17:50:15.632Z,37.43
2023-05-02T17:52:43.134Z,37.47
2023-05-02T17:55:10.870Z,37.51
2023-05-02T17:57:38.689Z,37.53
2023-05-02T18:00:08.078Z,37.53
2023-05-02T18:02:40.326Z,37.58
2023-05-02T18:05:08.308Z,37.69
2023-05-02T18:07:36.419Z,37.75
2023-05-02T18:10:05.364Z,37.72
2023-05-02T18:12:33.701Z,37.77
2023-05-02T18:15:05.587Z,37.70
2023-05-02T18:17:33.916Z,37.75
2023-05-02T18:20:04.310Z,37.78
2023-05-02T18:22:34.065Z,37.85
2023-05-02T18:25:02.416Z,37.88
2023-05-02T18:27:38.105Z,37.88
2023-05-02T18:30:07.454Z,37.89
2023-05-02T18:32:35.276Z,37.92
2023-05-02T18:35:04.171Z,37.93
2023-05-02T18:37:32.409Z,37.95
2023-05-02T18:40:00.752Z,37.95
2023-05-02T18:42:28.647Z,37.95
2023-05-02T18:44:56.648Z,37.96
2023-05-02T18:47:26.238Z,37.95
2023-05-02T18:49:56.453Z,37.95
2023-05-02T18:52:25.407Z,37.98
2023-05-02T18:55:13.881Z,37.97
2023-05-02T18:57:45.813Z,37.96
2023-05-02T19:00:14.459Z,37.97
2023-05-02T19:02:43.316Z,37.97
2023-05-02T19:05:11.394Z,37.93
2023-05-02T19:07:40.759Z,37.97
2023-05-02T19:10:09.456Z,37.98
2023-05-02T19:12:37.596Z,37.96
2023-05-02T19:15:06.946Z,37.97
2023-05-02T19:17:35.192Z,38.00
2023-05-02T19:20:03.429Z,38.02
2023-05-02T19:22:33.415Z,38.13
2023-05-02T19:25:02.307Z,38.19
2023-05-02T19:27:30.286Z,38.32
2023-05-02T19:30:00.100Z,38.38
2023-05-02T19:32:29.081Z,38.46
2023-05-02T19:34:58.760Z,38.22
2023-05-02T19:37:27.691Z,38.33
2023-05-02T19:39:56.004Z,38.35
2023-05-02T19:42:25.103Z,38.36
2023-05-02T19:44:53.231Z,38.47
2023-05-02T19:47:22.856Z,38.62
2023-05-02T19:49:51.358Z,38.76
2023-05-02T19:52:19.189Z,38.91
2023-05-02T19:54:46.908Z,38.93
2023-05-02T19:57:14.504Z,38.96
2023-05-02T19:59:42.169Z,38.89
2023-05-02T20:02:12.255Z,38.84
2023-05-02T20:04:40.330Z,38.85
2023-05-02T20:07:08.616Z,38.66
2023-05-02T20:09:36.646Z,38.81
2023-05-02T20:12:04.551Z,38.84
2023-05-02T20:14:32.288Z,38.84
2023-05-02T20:17:01.807Z,38.81
2023-05-02T20:19:32.264Z,38.80
2023-05-02T20:21:59.842Z,38.76
2023-05-02T20:24:27.591Z,38.72
2023-05-02T20:26:55.689Z,38.72
2023-05-02T20:29:24.050Z,38.74
2023-05-02T20:31:51.542Z,38.73
2023-05-02T20:34:19.609Z,38.72
2023-05-02T20:36:47.380Z,38.68
2023-05-02T20:39:16.005Z,38.68
2023-05-02T20:41:45.003Z,38.67
2023-05-02T20:44:15.176Z,38.68
2023-05-02T20:46:42.638Z,38.67
2023-05-02T20:49:10.306Z,38.66
2023-05-02T20:51:37.739Z,38.65
2023-05-02T20:54:05.229Z,38.65
2023-05-02T20:56:32.955Z,38.63
2023-05-02T20:59:00.553Z,38.61
2023-05-02T21:01:27.994Z,38.60
2023-05-02T21:03:57.156Z,38.60
2023-05-02T21:06:24.785Z,38.61
2023-05-02T21:08:55.118Z,38.62
2023-05-02T21:11:22.799Z,38.64
2023-05-02T21:13:50.280Z,38.64
2023-05-02T21:16:18.496Z,38.65
2023-05-02T21:18:46.779Z,38.65
2023-05-02T21:21:14.187Z,38.67
2023-05-02T21:23:41.678Z,38.68
2023-05-02T21:26:09.360Z,38.84
2023-05-02T21:28:38.556Z,38.89
2023-05-02T21:31:07.148Z,38.90
2023-05-02T21:33:34.884Z,38.88
2023-05-02T21:36:02.328Z,38.89
2023-05-02T21:38:29.741Z,38.90
2023-05-02T21:41:01.321Z,38.91
2023-05-02T21:43:29.727Z,38.94
2023-05-02T21:45:57.409Z,38.95
2023-05-02T21:48:24.825Z,38.94
2023-05-02T21:50:52.220Z,38.97
2023-05-02T21:53:19.965Z,39.00
2023-05-02T21:55:47.345Z,38.98
2023-05-02T21:58:14.735Z,38.98
2023-05-02T22:00:43.380Z,38.96
2023-05-02T22:03:14.026Z,38.95
2023-05-02T22:05:41.775Z,38.94
2023-05-02T22:08:09.972Z,38.94
2023-05-02T22:10:38.682Z,38.97
2023-05-02T22:13:09.431Z,38.97
2023-05-02T22:15:37.661Z,38.95
2023-05-02T22:18:06.869Z,38.92
2023-05-02T22:20:36.191Z,38.91
2023-05-02T22:23:04.945Z,38.90
2023-05-02T22:25:32.649Z,38.89
2023-05-02T22:28:03.915Z,38.96
2023-05-02T22:30:31.332Z,39.10
2023-05-02T22:32:59.180Z,39.21
2023-05-02T22:35:26.666Z,39.23
2023-05-02T22:37:54.119Z,39.23
2023-05-02T22:40:21.801Z,39.25
2023-05-02T22:42:49.197Z,39.24
2023-05-02T22:45:16.804Z,39.25
2023-05-02T22:47:44.482Z,39.26
2023-05-02T22:50:12.927Z,39.26
2023-05-02T22:52:40.929Z,39.24
2023-05-02T22:55:09.517Z,39.23
2023-05-02T22:57:37.268Z,39.22
2023-05-02T23:00:05.509Z,39.19
2023-05-02T23:02:34.084Z,39.19
2023-05-02T23:05:02.013Z,39.15
2023-05-02T23:07:29.666Z,39.16
2023-05-02T23:09:57.311Z,39.21
2023-05-02T23:12:24.668Z,39.18
2023-05-02T23:14:52.076Z,39.15
2023-05-02T23:17:19.724Z,39.15
2023-05-02T23:19:47.143Z,39.15
2023-05-02T23:22:14.641Z,39.14
2023-05-02T23:24:42.327Z,39.17
2023-05-02T23:27:09.781Z,39.15
2023-05-02T23:29:37.390Z,39.13
2023-05-02T23:32:08.061Z,39.09
2023-05-02T23:34:38.301Z,39.08
2023-05-02T23:37:06.920Z,39.06
2023-05-02T23:39:34.458Z,39.06
2023-05-02T23:42:03.822Z,39.05
2023-05-02T23:44:31.601Z,39.04
2023-05-02T23:46:59.639Z,39.03
2023-05-02T23:49:27.239Z,39.07
2023-05-02T23:51:54.971Z,39.06
2023-05-02T23:54:22.393Z,39.05
2023-05-02T23:56:49.929Z,39.10
2023-05-02T23:59:17.711Z,39.07
